sensor_id;sensor_type;location;lat;lon;timestamp;P1;durP1;ratioP1;P2;durP2;ratioP2
74908;SDS011;63468;52.058;4.824;2024-01-27T00:01:34;17.60;;;10.70;;
74908;SDS011;63468;52.058;4.824;2024-01-27T00:04:00;18.00;;;10.05;;
74908;SDS011;63468;52.058;4.824;2024-01-27T00:06:25;15.95;;;9.88;;
74908;SDS011;63468;52.058;4.824;2024-01-27T00:08:51;17.45;;;11.05;;
74908;SDS011;63468;52.058;4.824;2024-01-27T00:11:16;14.98;;;10.77;;
74908;SDS011;63468;52.058;4.824;2024-01-27T00:13:42;21.77;;;11.82;;
74908;SDS011;63468;52.058;4.824;2024-01-27T00:16:07;18.33;;;11.38;;
74908;SDS011;63468;52.058;4.824;2024-01-27T00:18:35;15.70;;;10.10;;
74908;SDS011;63468;52.058;4.824;2024-01-27T00:21:01;15.75;;;11.50;;
74908;SDS011;63468;52.058;4.824;2024-01-27T00:23:26;18.35;;;12.45;;
74908;SDS011;63468;52.058;4.824;2024-01-27T00:25:51;15.55;;;11.85;;
74908;SDS011;63468;52.058;4.824;2024-01-27T00:28:17;16.85;;;11.25;;
74908;SDS011;63468;52.058;4.824;2024-01-27T00:30:42;19.02;;;11.70;;
74908;SDS011;63468;52.058;4.824;2024-01-27T00:33:08;14.27;;;12.07;;
74908;SDS011;63468;52.058;4.824;2024-01-27T00:35:33;19.63;;;12.00;;
74908;SDS011;63468;52.058;4.824;2024-01-27T00:37:58;15.55;;;12.07;;
74908;SDS011;63468;52.058;4.824;2024-01-27T00:40:24;13.68;;;10.63;;
74908;SDS011;63468;52.058;4.824;2024-01-27T00:42:49;15.38;;;10.50;;
74908;SDS011;63468;52.058;4.824;2024-01-27T00:45:14;20.10;;;11.23;;
74908;SDS011;63468;52.058;4.824;2024-01-27T00:47:40;12.75;;;11.07;;
74908;SDS011;63468;52.058;4.824;2024-01-27T00:50:05;14.50;;;10.80;;
74908;SDS011;63468;52.058;4.824;2024-01-27T00:52:33;14.52;;;10.77;;
74908;SDS011;63468;52.058;4.824;2024-01-27T00:54:59;13.77;;;10.20;;
74908;SDS011;63468;52.058;4.824;2024-01-27T00:57:24;22.15;;;11.18;;
74908;SDS011;63468;52.058;4.824;2024-01-27T00:59:50;16.30;;;10.45;;
74908;SDS011;63468;52.058;4.824;2024-01-27T01:02:15;11.35;;;10.07;;
74908;SDS011;63468;52.058;4.824;2024-01-27T01:04:40;20.58;;;10.52;;
74908;SDS011;63468;52.058;4.824;2024-01-27T01:07:07;19.85;;;11.00;;
74908;SDS011;63468;52.058;4.824;2024-01-27T01:09:33;15.52;;;10.43;;
74908;SDS011;63468;52.058;4.824;2024-01-27T01:11:58;16.30;;;10.20;;
74908;SDS011;63468;52.058;4.824;2024-01-27T01:14:24;18.50;;;10.63;;
74908;SDS011;63468;52.058;4.824;2024-01-27T01:16:49;15.77;;;11.07;;
74908;SDS011;63468;52.058;4.824;2024-01-27T01:19:15;17.33;;;10.40;;
74908;SDS011;63468;52.058;4.824;2024-01-27T01:21:40;19.83;;;11.75;;
74908;SDS011;63468;52.058;4.824;2024-01-27T01:24:06;23.13;;;11.40;;
74908;SDS011;63468;52.058;4.824;2024-01-27T01:26:31;13.55;;;11.13;;
74908;SDS011;63468;52.058;4.824;2024-01-27T01:28:56;15.50;;;10.60;;
74908;SDS011;63468;52.058;4.824;2024-01-27T01:31:22;11.57;;;10.30;;
74908;SDS011;63468;52.058;4.824;2024-01-27T01:33:47;14.90;;;10.75;;
74908;SDS011;63468;52.058;4.824;2024-01-27T01:36:12;16.92;;;11.68;;
74908;SDS011;63468;52.058;4.824;2024-01-27T01:38:38;13.10;;;10.60;;
74908;SDS011;63468;52.058;4.824;2024-01-27T01:41:03;18.52;;;11.13;;
74908;SDS011;63468;52.058;4.824;2024-01-27T01:43:29;15.85;;;11.73;;
74908;SDS011;63468;52.058;4.824;2024-01-27T01:45:54;13.57;;;10.50;;
74908;SDS011;63468;52.058;4.824;2024-01-27T01:48:20;21.77;;;11.75;;
74908;SDS011;63468;52.058;4.824;2024-01-27T01:50:45;12.80;;;10.77;;
74908;SDS011;63468;52.058;4.824;2024-01-27T01:53:11;11.93;;;10.68;;
74908;SDS011;63468;52.058;4.824;2024-01-27T01:55:37;14.23;;;10.98;;
74908;SDS011;63468;52.058;4.824;2024-01-27T01:58:03;12.15;;;9.95;;
74908;SDS011;63468;52.058;4.824;2024-01-27T02:00:28;13.45;;;10.82;;
74908;SDS011;63468;52.058;4.824;2024-01-27T02:02:54;16.10;;;10.43;;
74908;SDS011;63468;52.058;4.824;2024-01-27T02:05:19;14.50;;;11.13;;
74908;SDS011;63468;52.058;4.824;2024-01-27T02:07:45;12.10;;;10.85;;
74908;SDS011;63468;52.058;4.824;2024-01-27T02:10:14;15.45;;;10.40;;
74908;SDS011;63468;52.058;4.824;2024-01-27T02:12:41;11.85;;;10.30;;
74908;SDS011;63468;52.058;4.824;2024-01-27T02:15:09;13.43;;;10.73;;
74908;SDS011;63468;52.058;4.824;2024-01-27T02:17:36;12.25;;;10.18;;
74908;SDS011;63468;52.058;4.824;2024-01-27T02:20:02;12.88;;;10.45;;
74908;SDS011;63468;52.058;4.824;2024-01-27T02:22:28;12.48;;;10.63;;
74908;SDS011;63468;52.058;4.824;2024-01-27T02:24:53;13.68;;;10.73;;
74908;SDS011;63468;52.058;4.824;2024-01-27T02:27:18;12.40;;;10.77;;
74908;SDS011;63468;52.058;4.824;2024-01-27T02:29:44;13.55;;;10.60;;
74908;SDS011;63468;52.058;4.824;2024-01-27T02:32:09;11.35;;;10.35;;
74908;SDS011;63468;52.058;4.824;2024-01-27T02:34:34;15.00;;;11.30;;
74908;SDS011;63468;52.058;4.824;2024-01-27T02:37:00;16.55;;;10.45;;
74908;SDS011;63468;52.058;4.824;2024-01-27T02:39:25;13.00;;;10.77;;
74908;SDS011;63468;52.058;4.824;2024-01-27T02:41:51;14.70;;;10.82;;
74908;SDS011;63468;52.058;4.824;2024-01-27T02:44:16;16.00;;;11.15;;
74908;SDS011;63468;52.058;4.824;2024-01-27T02:46:41;12.15;;;10.85;;
74908;SDS011;63468;52.058;4.824;2024-01-27T02:49:09;14.40;;;11.80;;
74908;SDS011;63468;52.058;4.824;2024-01-27T02:51:34;17.17;;;12.68;;
74908;SDS011;63468;52.058;4.824;2024-01-27T02:53:59;13.77;;;11.52;;
74908;SDS011;63468;52.058;4.824;2024-01-27T02:56:25;15.98;;;11.75;;
74908;SDS011;63468;52.058;4.824;2024-01-27T02:58:50;15.70;;;11.65;;
74908;SDS011;63468;52.058;4.824;2024-01-27T03:01:15;12.55;;;11.25;;
74908;SDS011;63468;52.058;4.824;2024-01-27T03:03:41;14.43;;;11.38;;
74908;SDS011;63468;52.058;4.824;2024-01-27T03:06:06;20.88;;;12.43;;
74908;SDS011;63468;52.058;4.824;2024-01-27T03:08:31;25.85;;;13.02;;
74908;SDS011;63468;52.058;4.824;2024-01-27T03:10:57;14.98;;;12.30;;
74908;SDS011;63468;52.058;4.824;2024-01-27T03:13:22;13.23;;;11.82;;
74908;SDS011;63468;52.058;4.824;2024-01-27T03:15:47;15.32;;;13.00;;
74908;SDS011;63468;52.058;4.824;2024-01-27T03:18:14;14.10;;;12.18;;
74908;SDS011;63468;52.058;4.824;2024-01-27T03:20:39;14.13;;;12.77;;
74908;SDS011;63468;52.058;4.824;2024-01-27T03:23:04;13.43;;;11.85;;
74908;SDS011;63468;52.058;4.824;2024-01-27T03:25:30;14.57;;;12.32;;
74908;SDS011;63468;52.058;4.824;2024-01-27T03:27:55;18.42;;;14.07;;
74908;SDS011;63468;52.058;4.824;2024-01-27T03:30:21;16.83;;;12.52;;
74908;SDS011;63468;52.058;4.824;2024-01-27T03:32:46;13.90;;;12.40;;
74908;SDS011;63468;52.058;4.824;2024-01-27T03:35:11;15.48;;;13.80;;
74908;SDS011;63468;52.058;4.824;2024-01-27T03:37:37;16.17;;;14.27;;
74908;SDS011;63468;52.058;4.824;2024-01-27T03:40:02;22.55;;;13.75;;
74908;SDS011;63468;52.058;4.824;2024-01-27T03:42:27;21.30;;;14.43;;
74908;SDS011;63468;52.058;4.824;2024-01-27T03:44:53;19.88;;;14.77;;
74908;SDS011;63468;52.058;4.824;2024-01-27T03:47:18;18.50;;;15.20;;
74908;SDS011;63468;52.058;4.824;2024-01-27T03:49:44;15.77;;;14.18;;
74908;SDS011;63468;52.058;4.824;2024-01-27T03:52:09;16.45;;;14.75;;
74908;SDS011;63468;52.058;4.824;2024-01-27T03:54:37;16.88;;;15.18;;
74908;SDS011;63468;52.058;4.824;2024-01-27T03:57:02;22.38;;;15.40;;
74908;SDS011;63468;52.058;4.824;2024-01-27T03:59:28;19.67;;;16.33;;
74908;SDS011;63468;52.058;4.824;2024-01-27T04:01:53;20.13;;;16.10;;
74908;SDS011;63468;52.058;4.824;2024-01-27T04:04:19;16.23;;;14.07;;
74908;SDS011;63468;52.058;4.824;2024-01-27T04:06:44;21.27;;;15.63;;
74908;SDS011;63468;52.058;4.824;2024-01-27T04:09:09;22.38;;;16.20;;
74908;SDS011;63468;52.058;4.824;2024-01-27T04:11:35;18.00;;;16.05;;
74908;SDS011;63468;52.058;4.824;2024-01-27T04:14:01;24.95;;;16.85;;
74908;SDS011;63468;52.058;4.824;2024-01-27T04:16:27;22.52;;;15.77;;
74908;SDS011;63468;52.058;4.824;2024-01-27T04:18:53;28.95;;;17.40;;
74908;SDS011;63468;52.058;4.824;2024-01-27T04:21:18;24.77;;;17.58;;
74908;SDS011;63468;52.058;4.824;2024-01-27T04:23:44;25.00;;;18.38;;
74908;SDS011;63468;52.058;4.824;2024-01-27T04:26:09;22.77;;;17.85;;
74908;SDS011;63468;52.058;4.824;2024-01-27T04:28:35;23.50;;;18.65;;
74908;SDS011;63468;52.058;4.824;2024-01-27T04:31:01;24.17;;;18.63;;
74908;SDS011;63468;52.058;4.824;2024-01-27T04:33:26;19.33;;;17.33;;
74908;SDS011;63468;52.058;4.824;2024-01-27T04:35:52;21.10;;;18.08;;
74908;SDS011;63468;52.058;4.824;2024-01-27T04:38:17;22.33;;;18.90;;
74908;SDS011;63468;52.058;4.824;2024-01-27T04:40:42;22.77;;;18.02;;
74908;SDS011;63468;52.058;4.824;2024-01-27T04:43:08;30.52;;;18.85;;
74908;SDS011;63468;52.058;4.824;2024-01-27T04:45:33;19.30;;;17.50;;
74908;SDS011;63468;52.058;4.824;2024-01-27T04:47:58;24.98;;;20.23;;
74908;SDS011;63468;52.058;4.824;2024-01-27T04:50:26;30.58;;;20.83;;
74908;SDS011;63468;52.058;4.824;2024-01-27T04:52:51;22.70;;;19.85;;
74908;SDS011;63468;52.058;4.824;2024-01-27T04:55:16;24.75;;;20.48;;
74908;SDS011;63468;52.058;4.824;2024-01-27T04:57:42;27.98;;;20.00;;
74908;SDS011;63468;52.058;4.824;2024-01-27T05:00:07;23.75;;;19.33;;
74908;SDS011;63468;52.058;4.824;2024-01-27T05:02:38;26.92;;;20.63;;
74908;SDS011;63468;52.058;4.824;2024-01-27T05:05:04;28.88;;;20.98;;
74908;SDS011;63468;52.058;4.824;2024-01-27T05:07:30;28.52;;;20.65;;
74908;SDS011;63468;52.058;4.824;2024-01-27T05:09:55;28.45;;;20.65;;
74908;SDS011;63468;52.058;4.824;2024-01-27T05:12:21;21.13;;;18.95;;
74908;SDS011;63468;52.058;4.824;2024-01-27T05:14:46;22.17;;;19.65;;
74908;SDS011;63468;52.058;4.824;2024-01-27T05:17:12;23.85;;;20.70;;
74908;SDS011;63468;52.058;4.824;2024-01-27T05:19:37;20.85;;;18.73;;
74908;SDS011;63468;52.058;4.824;2024-01-27T05:22:03;22.95;;;19.92;;
74908;SDS011;63468;52.058;4.824;2024-01-27T05:24:28;26.90;;;19.90;;
74908;SDS011;63468;52.058;4.824;2024-01-27T05:26:53;22.33;;;19.90;;
74908;SDS011;63468;52.058;4.824;2024-01-27T05:29:19;22.90;;;19.30;;
74908;SDS011;63468;52.058;4.824;2024-01-27T05:31:44;26.80;;;21.40;;
74908;SDS011;63468;52.058;4.824;2024-01-27T05:34:10;22.63;;;20.20;;
74908;SDS011;63468;52.058;4.824;2024-01-27T05:36:35;23.95;;;21.20;;
74908;SDS011;63468;52.058;4.824;2024-01-27T05:39:01;26.98;;;20.92;;
74908;SDS011;63468;52.058;4.824;2024-01-27T05:41:28;23.40;;;20.23;;
74908;SDS011;63468;52.058;4.824;2024-01-27T05:43:54;23.38;;;21.00;;
74908;SDS011;63468;52.058;4.824;2024-01-27T05:46:19;28.40;;;21.02;;
74908;SDS011;63468;52.058;4.824;2024-01-27T05:48:44;24.55;;;20.48;;
74908;SDS011;63468;52.058;4.824;2024-01-27T05:51:10;22.20;;;20.00;;
74908;SDS011;63468;52.058;4.824;2024-01-27T05:53:35;22.65;;;20.20;;
74908;SDS011;63468;52.058;4.824;2024-01-27T05:56:02;25.25;;;19.80;;
74908;SDS011;63468;52.058;4.824;2024-01-27T05:58:27;20.70;;;18.60;;
74908;SDS011;63468;52.058;4.824;2024-01-27T06:00:53;23.00;;;20.60;;
74908;SDS011;63468;52.058;4.824;2024-01-27T06:03:18;24.38;;;21.38;;
74908;SDS011;63468;52.058;4.824;2024-01-27T06:05:44;22.98;;;20.25;;
74908;SDS011;63468;52.058;4.824;2024-01-27T06:08:09;23.95;;;19.75;;
74908;SDS011;63468;52.058;4.824;2024-01-27T06:10:35;25.15;;;20.38;;
74908;SDS011;63468;52.058;4.824;2024-01-27T06:13:03;29.35;;;21.95;;
74908;SDS011;63468;52.058;4.824;2024-01-27T06:15:28;23.70;;;21.30;;
74908;SDS011;63468;52.058;4.824;2024-01-27T06:17:54;22.75;;;20.65;;
74908;SDS011;63468;52.058;4.824;2024-01-27T06:20:19;24.35;;;20.98;;
74908;SDS011;63468;52.058;4.824;2024-01-27T06:22:44;25.35;;;21.00;;
74908;SDS011;63468;52.058;4.824;2024-01-27T06:25:10;30.58;;;22.60;;
74908;SDS011;63468;52.058;4.824;2024-01-27T06:27:36;23.27;;;20.90;;
74908;SDS011;63468;52.058;4.824;2024-01-27T06:30:02;23.20;;;21.08;;
74908;SDS011;63468;52.058;4.824;2024-01-27T06:32:28;27.42;;;21.88;;
74908;SDS011;63468;52.058;4.824;2024-01-27T06:34:54;25.85;;;21.83;;
74908;SDS011;63468;52.058;4.824;2024-01-27T06:37:19;31.98;;;23.00;;
74908;SDS011;63468;52.058;4.824;2024-01-27T06:39:44;25.17;;;22.55;;
74908;SDS011;63468;52.058;4.824;2024-01-27T06:42:10;26.48;;;22.48;;
74908;SDS011;63468;52.058;4.824;2024-01-27T06:44:35;25.13;;;22.67;;
74908;SDS011;63468;52.058;4.824;2024-01-27T06:47:00;27.38;;;22.17;;
74908;SDS011;63468;52.058;4.824;2024-01-27T06:49:26;25.25;;;22.67;;
74908;SDS011;63468;52.058;4.824;2024-01-27T06:51:51;25.42;;;22.35;;
74908;SDS011;63468;52.058;4.824;2024-01-27T06:54:16;29.25;;;24.45;;
74908;SDS011;63468;52.058;4.824;2024-01-27T06:56:41;27.10;;;24.60;;
74908;SDS011;63468;52.058;4.824;2024-01-27T06:59:07;27.60;;;22.83;;
74908;SDS011;63468;52.058;4.824;2024-01-27T07:01:32;25.05;;;22.60;;
74908;SDS011;63468;52.058;4.824;2024-01-27T07:03:57;27.23;;;23.38;;
74908;SDS011;63468;52.058;4.824;2024-01-27T07:06:23;27.95;;;25.13;;
74908;SDS011;63468;52.058;4.824;2024-01-27T07:08:48;29.10;;;23.25;;
74908;SDS011;63468;52.058;4.824;2024-01-27T07:11:14;25.50;;;23.02;;
74908;SDS011;63468;52.058;4.824;2024-01-27T07:13:40;30.08;;;23.65;;
74908;SDS011;63468;52.058;4.824;2024-01-27T07:16:06;28.75;;;23.92;;
74908;SDS011;63468;52.058;4.824;2024-01-27T07:18:31;27.15;;;24.42;;
74908;SDS011;63468;52.058;4.824;2024-01-27T07:20:59;27.10;;;24.25;;
74908;SDS011;63468;52.058;4.824;2024-01-27T07:23:26;33.70;;;24.67;;
74908;SDS011;63468;52.058;4.824;2024-01-27T07:25:51;28.75;;;25.73;;
74908;SDS011;63468;52.058;4.824;2024-01-27T07:28:17;25.50;;;23.02;;
74908;SDS011;63468;52.058;4.824;2024-01-27T07:30:43;28.30;;;23.65;;
74908;SDS011;63468;52.058;4.824;2024-01-27T07:33:09;29.75;;;24.85;;
74908;SDS011;63468;52.058;4.824;2024-01-27T07:35:34;28.75;;;21.90;;
74908;SDS011;63468;52.058;4.824;2024-01-27T07:38:00;26.27;;;23.63;;
74908;SDS011;63468;52.058;4.824;2024-01-27T07:40:25;26.48;;;23.13;;
74908;SDS011;63468;52.058;4.824;2024-01-27T07:42:50;24.77;;;22.13;;
74908;SDS011;63468;52.058;4.824;2024-01-27T07:45:16;31.40;;;22.83;;
74908;SDS011;63468;52.058;4.824;2024-01-27T07:47:41;28.27;;;23.85;;
74908;SDS011;63468;52.058;4.824;2024-01-27T07:50:07;28.85;;;23.42;;
74908;SDS011;63468;52.058;4.824;2024-01-27T07:52:34;27.00;;;22.08;;
74908;SDS011;63468;52.058;4.824;2024-01-27T07:55:00;31.70;;;23.38;;
74908;SDS011;63468;52.058;4.824;2024-01-27T07:57:25;33.55;;;24.20;;
74908;SDS011;63468;52.058;4.824;2024-01-27T07:59:50;27.80;;;23.85;;
74908;SDS011;63468;52.058;4.824;2024-01-27T08:02:16;26.48;;;23.45;;
74908;SDS011;63468;52.058;4.824;2024-01-27T08:04:41;28.88;;;23.58;;
74908;SDS011;63468;52.058;4.824;2024-01-27T08:07:06;26.98;;;24.00;;
74908;SDS011;63468;52.058;4.824;2024-01-27T08:09:34;27.33;;;23.23;;
74908;SDS011;63468;52.058;4.824;2024-01-27T08:12:00;28.75;;;24.05;;
74908;SDS011;63468;52.058;4.824;2024-01-27T08:14:26;27.50;;;24.67;;
74908;SDS011;63468;52.058;4.824;2024-01-27T08:16:55;24.55;;;22.23;;
74908;SDS011;63468;52.058;4.824;2024-01-27T08:19:21;26.05;;;23.58;;
74908;SDS011;63468;52.058;4.824;2024-01-27T08:21:47;32.60;;;24.33;;
74908;SDS011;63468;52.058;4.824;2024-01-27T08:24:13;26.02;;;23.20;;
74908;SDS011;63468;52.058;4.824;2024-01-27T08:26:39;25.75;;;23.05;;
74908;SDS011;63468;52.058;4.824;2024-01-27T08:29:04;27.92;;;24.33;;
74908;SDS011;63468;52.058;4.824;2024-01-27T08:31:29;27.20;;;24.23;;
74908;SDS011;63468;52.058;4.824;2024-01-27T08:33:55;30.77;;;23.45;;
74908;SDS011;63468;52.058;4.824;2024-01-27T08:36:20;26.13;;;23.20;;
74908;SDS011;63468;52.058;4.824;2024-01-27T08:38:45;30.35;;;24.70;;
74908;SDS011;63468;52.058;4.824;2024-01-27T08:41:11;32.33;;;24.45;;
74908;SDS011;63468;52.058;4.824;2024-01-27T08:43:36;26.77;;;23.90;;
74908;SDS011;63468;52.058;4.824;2024-01-27T08:46:02;31.98;;;24.92;;
74908;SDS011;63468;52.058;4.824;2024-01-27T08:48:27;32.58;;;26.48;;
74908;SDS011;63468;52.058;4.824;2024-01-27T08:50:53;29.27;;;25.95;;
74908;SDS011;63468;52.058;4.824;2024-01-27T08:53:18;29.88;;;26.70;;
74908;SDS011;63468;52.058;4.824;2024-01-27T08:55:43;32.15;;;24.85;;
74908;SDS011;63468;52.058;4.824;2024-01-27T08:58:09;26.73;;;23.88;;
74908;SDS011;63468;52.058;4.824;2024-01-27T09:00:34;28.08;;;24.63;;
74908;SDS011;63468;52.058;4.824;2024-01-27T09:03:00;28.83;;;25.88;;
74908;SDS011;63468;52.058;4.824;2024-01-27T09:05:26;29.77;;;23.38;;
74908;SDS011;63468;52.058;4.824;2024-01-27T09:07:53;26.35;;;23.85;;
74908;SDS011;63468;52.058;4.824;2024-01-27T09:10:18;31.48;;;24.13;;
74908;SDS011;63468;52.058;4.824;2024-01-27T09:12:44;26.48;;;24.00;;
74908;SDS011;63468;52.058;4.824;2024-01-27T09:15:09;30.13;;;25.75;;
74908;SDS011;63468;52.058;4.824;2024-01-27T09:17:35;29.27;;;26.17;;
74908;SDS011;63468;52.058;4.824;2024-01-27T09:20:01;27.38;;;24.45;;
74908;SDS011;63468;52.058;4.824;2024-01-27T09:22:26;28.63;;;25.58;;
74908;SDS011;63468;52.058;4.824;2024-01-27T09:24:51;29.55;;;25.67;;
74908;SDS011;63468;52.058;4.824;2024-01-27T09:27:18;30.08;;;25.45;;
74908;SDS011;63468;52.058;4.824;2024-01-27T09:29:43;31.40;;;27.73;;
74908;SDS011;63468;52.058;4.824;2024-01-27T09:32:08;28.60;;;25.52;;
74908;SDS011;63468;52.058;4.824;2024-01-27T09:34:34;30.85;;;26.60;;
74908;SDS011;63468;52.058;4.824;2024-01-27T09:36:59;31.83;;;27.63;;
74908;SDS011;63468;52.058;4.824;2024-01-27T09:39:25;33.78;;;25.20;;
74908;SDS011;63468;52.058;4.824;2024-01-27T09:41:50;34.03;;;27.02;;
74908;SDS011;63468;52.058;4.824;2024-01-27T09:44:17;32.05;;;27.25;;
74908;SDS011;63468;52.058;4.824;2024-01-27T09:46:43;29.70;;;26.70;;
74908;SDS011;63468;52.058;4.824;2024-01-27T09:49:10;35.28;;;27.10;;
74908;SDS011;63468;52.058;4.824;2024-01-27T09:51:38;40.50;;;27.08;;
74908;SDS011;63468;52.058;4.824;2024-01-27T09:54:03;29.08;;;26.25;;
74908;SDS011;63468;52.058;4.824;2024-01-27T09:56:29;28.90;;;25.77;;
74908;SDS011;63468;52.058;4.824;2024-01-27T09:58:55;26.67;;;23.92;;
74908;SDS011;63468;52.058;4.824;2024-01-27T10:01:21;34.22;;;26.50;;
74908;SDS011;63468;52.058;4.824;2024-01-27T10:03:46;28.10;;;25.25;;
74908;SDS011;63468;52.058;4.824;2024-01-27T10:06:12;29.70;;;26.63;;
74908;SDS011;63468;52.058;4.824;2024-01-27T10:08:39;32.97;;;26.48;;
74908;SDS011;63468;52.058;4.824;2024-01-27T10:11:08;31.63;;;26.52;;
74908;SDS011;63468;52.058;4.824;2024-01-27T10:13:34;32.20;;;26.70;;
74908;SDS011;63468;52.058;4.824;2024-01-27T10:16:03;29.85;;;26.88;;
74908;SDS011;63468;52.058;4.824;2024-01-27T10:18:33;29.30;;;26.33;;
74908;SDS011;63468;52.058;4.824;2024-01-27T10:20:59;31.15;;;27.88;;
74908;SDS011;63468;52.058;4.824;2024-01-27T10:23:25;27.48;;;24.88;;
74908;SDS011;63468;52.058;4.824;2024-01-27T10:25:51;31.90;;;25.42;;
74908;SDS011;63468;52.058;4.824;2024-01-27T10:28:17;27.95;;;24.70;;
74908;SDS011;63468;52.058;4.824;2024-01-27T10:30:43;28.48;;;23.60;;
74908;SDS011;63468;52.058;4.824;2024-01-27T10:33:09;32.92;;;24.98;;
74908;SDS011;63468;52.058;4.824;2024-01-27T10:35:35;28.30;;;25.38;;
74908;SDS011;63468;52.058;4.824;2024-01-27T10:38:01;27.60;;;24.58;;
74908;SDS011;63468;52.058;4.824;2024-01-27T10:40:26;27.77;;;24.88;;
74908;SDS011;63468;52.058;4.824;2024-01-27T10:43:02;32.08;;;24.58;;
74908;SDS011;63468;52.058;4.824;2024-01-27T10:45:37;33.45;;;24.65;;
74908;SDS011;63468;52.058;4.824;2024-01-27T10:48:04;34.35;;;23.08;;
74908;SDS011;63468;52.058;4.824;2024-01-27T10:50:31;25.50;;;22.55;;
74908;SDS011;63468;52.058;4.824;2024-01-27T10:53:00;29.90;;;23.60;;
74908;SDS011;63468;52.058;4.824;2024-01-27T10:55:26;31.25;;;23.70;;
74908;SDS011;63468;52.058;4.824;2024-01-27T10:57:52;25.88;;;22.95;;
74908;SDS011;63468;52.058;4.824;2024-01-27T11:00:19;25.50;;;22.83;;
74908;SDS011;63468;52.058;4.824;2024-01-27T11:02:44;27.35;;;23.70;;
74908;SDS011;63468;52.058;4.824;2024-01-27T11:05:10;23.85;;;21.58;;
74908;SDS011;63468;52.058;4.824;2024-01-27T11:07:35;26.30;;;22.38;;
74908;SDS011;63468;52.058;4.824;2024-01-27T11:10:03;30.38;;;23.42;;
74908;SDS011;63468;52.058;4.824;2024-01-27T11:12:29;29.58;;;23.77;;
74908;SDS011;63468;52.058;4.824;2024-01-27T11:14:56;25.65;;;23.17;;
74908;SDS011;63468;52.058;4.824;2024-01-27T11:17:23;28.48;;;23.48;;
74908;SDS011;63468;52.058;4.824;2024-01-27T11:19:49;26.08;;;22.77;;
74908;SDS011;63468;52.058;4.824;2024-01-27T11:22:26;24.88;;;22.00;;
74908;SDS011;63468;52.058;4.824;2024-01-27T11:27:36;25.42;;;22.70;;
74908;SDS011;63468;52.058;4.824;2024-01-27T11:30:02;30.13;;;20.50;;
74908;SDS011;63468;52.058;4.824;2024-01-27T11:32:28;22.85;;;20.40;;
74908;SDS011;63468;52.058;4.824;2024-01-27T11:34:54;23.40;;;20.60;;
74908;SDS011;63468;52.058;4.824;2024-01-27T11:37:20;22.75;;;19.92;;
74908;SDS011;63468;52.058;4.824;2024-01-27T11:39:49;25.02;;;19.95;;
74908;SDS011;63468;52.058;4.824;2024-01-27T11:42:16;21.38;;;19.15;;
74908;SDS011;63468;52.058;4.824;2024-01-27T11:44:41;28.08;;;20.15;;
74908;SDS011;63468;52.058;4.824;2024-01-27T11:47:14;22.40;;;20.10;;
74908;SDS011;63468;52.058;4.824;2024-01-27T11:49:43;22.05;;;18.65;;
74908;SDS011;63468;52.058;4.824;2024-01-27T11:52:18;29.40;;;18.23;;
74908;SDS011;63468;52.058;4.824;2024-01-27T11:54:44;22.05;;;19.63;;
74908;SDS011;63468;52.058;4.824;2024-01-27T11:57:09;23.90;;;19.65;;
74908;SDS011;63468;52.058;4.824;2024-01-27T11:59:34;22.50;;;19.27;;
74908;SDS011;63468;52.058;4.824;2024-01-27T12:02:00;21.92;;;18.52;;
74908;SDS011;63468;52.058;4.824;2024-01-27T12:04:27;21.50;;;17.85;;
74908;SDS011;63468;52.058;4.824;2024-01-27T12:06:52;20.02;;;18.15;;
74908;SDS011;63468;52.058;4.824;2024-01-27T12:09:18;27.23;;;18.45;;
74908;SDS011;63468;52.058;4.824;2024-01-27T12:11:44;23.42;;;18.73;;
74908;SDS011;63468;52.058;4.824;2024-01-27T12:14:10;23.98;;;17.85;;
74908;SDS011;63468;52.058;4.824;2024-01-27T12:16:36;19.58;;;17.13;;
74908;SDS011;63468;52.058;4.824;2024-01-27T12:19:01;20.02;;;18.02;;
74908;SDS011;63468;52.058;4.824;2024-01-27T12:21:27;18.90;;;16.92;;
74908;SDS011;63468;52.058;4.824;2024-01-27T12:23:53;28.67;;;17.35;;
74908;SDS011;63468;52.058;4.824;2024-01-27T12:26:25;18.92;;;16.98;;
74908;SDS011;63468;52.058;4.824;2024-01-27T12:28:51;18.27;;;16.50;;
74908;SDS011;63468;52.058;4.824;2024-01-27T12:31:17;21.83;;;16.50;;
74908;SDS011;63468;52.058;4.824;2024-01-27T12:33:56;19.90;;;17.85;;
74908;SDS011;63468;52.058;4.824;2024-01-27T12:36:24;20.52;;;17.52;;
74908;SDS011;63468;52.058;4.824;2024-01-27T12:38:56;19.50;;;17.50;;
74908;SDS011;63468;52.058;4.824;2024-01-27T12:41:23;18.95;;;16.70;;
74908;SDS011;63468;52.058;4.824;2024-01-27T12:43:54;25.65;;;16.85;;
74908;SDS011;63468;52.058;4.824;2024-01-27T12:46:20;19.02;;;17.05;;
74908;SDS011;63468;52.058;4.824;2024-01-27T12:48:45;21.00;;;17.48;;
74908;SDS011;63468;52.058;4.824;2024-01-27T12:51:11;25.70;;;18.40;;
74908;SDS011;63468;52.058;4.824;2024-01-27T12:53:38;24.42;;;15.75;;
74908;SDS011;63468;52.058;4.824;2024-01-27T12:56:03;17.20;;;15.48;;
74908;SDS011;63468;52.058;4.824;2024-01-27T12:58:29;24.02;;;16.65;;
74908;SDS011;63468;52.058;4.824;2024-01-27T13:00:54;20.67;;;16.98;;
74908;SDS011;63468;52.058;4.824;2024-01-27T13:03:20;24.50;;;16.23;;
74908;SDS011;63468;52.058;4.824;2024-01-27T13:05:45;20.92;;;15.23;;
74908;SDS011;63468;52.058;4.824;2024-01-27T13:08:10;22.30;;;15.27;;
74908;SDS011;63468;52.058;4.824;2024-01-27T13:10:36;22.08;;;15.60;;
74908;SDS011;63468;52.058;4.824;2024-01-27T13:13:01;19.52;;;15.80;;
74908;SDS011;63468;52.058;4.824;2024-01-27T13:15:27;18.10;;;15.57;;
74908;SDS011;63468;52.058;4.824;2024-01-27T13:17:52;19.73;;;15.90;;
74908;SDS011;63468;52.058;4.824;2024-01-27T13:20:17;17.88;;;15.45;;
74908;SDS011;63468;52.058;4.824;2024-01-27T13:22:43;22.30;;;16.55;;
74908;SDS011;63468;52.058;4.824;2024-01-27T13:25:08;20.65;;;15.52;;
74908;SDS011;63468;52.058;4.824;2024-01-27T13:27:34;17.95;;;15.82;;
74908;SDS011;63468;52.058;4.824;2024-01-27T13:29:59;24.55;;;15.60;;
74908;SDS011;63468;52.058;4.824;2024-01-27T13:32:25;20.10;;;14.93;;
74908;SDS011;63468;52.058;4.824;2024-01-27T13:34:51;23.17;;;15.77;;
74908;SDS011;63468;52.058;4.824;2024-01-27T13:37:17;16.95;;;15.43;;
74908;SDS011;63468;52.058;4.824;2024-01-27T13:39:42;18.05;;;15.27;;
74908;SDS011;63468;52.058;4.824;2024-01-27T13:42:08;24.73;;;15.60;;
74908;SDS011;63468;52.058;4.824;2024-01-27T13:44:33;18.33;;;14.93;;
74908;SDS011;63468;52.058;4.824;2024-01-27T13:47:01;25.45;;;15.93;;
74908;SDS011;63468;52.058;4.824;2024-01-27T13:49:27;22.52;;;15.30;;
74908;SDS011;63468;52.058;4.824;2024-01-27T13:51:53;21.80;;;15.73;;
74908;SDS011;63468;52.058;4.824;2024-01-27T13:54:18;18.23;;;15.60;;
74908;SDS011;63468;52.058;4.824;2024-01-27T13:56:43;18.75;;;16.48;;
74908;SDS011;63468;52.058;4.824;2024-01-27T13:59:10;19.85;;;16.23;;
74908;SDS011;63468;52.058;4.824;2024-01-27T14:01:36;20.42;;;15.05;;
74908;SDS011;63468;52.058;4.824;2024-01-27T14:04:01;17.48;;;15.68;;
74908;SDS011;63468;52.058;4.824;2024-01-27T14:06:27;19.52;;;15.52;;
74908;SDS011;63468;52.058;4.824;2024-01-27T14:08:52;19.35;;;15.07;;
74908;SDS011;63468;52.058;4.824;2024-01-27T14:11:17;18.45;;;16.73;;
74908;SDS011;63468;52.058;4.824;2024-01-27T14:13:43;22.10;;;16.17;;
74908;SDS011;63468;52.058;4.824;2024-01-27T14:16:09;19.83;;;16.95;;